Terminal Aerodrome Forecast
Issued by NWS

Home | Current Version | Previous Version | Text Only | Print | Product List | Glossary On
Versions: 1 2 3 4 5 6 7 8 9 10 11 12 13
547
FTUS46 KSGX 251734
TAFPSP
TAF
KPSP 251734Z 2518/2618 VRB05KT P6SM SKC
     FM252200 32012G22KT P6SM SKC
     FM260500 32009KT P6SM SKC
     FM260800 VRB03KT P6SM FEW200=

USA.gov is the U.S. government's official web portal to all federal, state and local government web resources and services.